Tropical Cyclones
[Index]
Main Index Home Page Stock Weather Photos Extreme Storms Discussion Storm News and Storm Chasing Reports Tropical Cyclones / Hurricanes / Typhoons Weather Data and Links Wild Fires / Bushfires Weather Observation Techniques Weather Picture Catalogue Tornado Pictures and Reports Stock Video Footage and DVDs for sale
Season 2011-2012 Tropical Cyclone 201202 Track Map
Season 2011-2012 Summaries: [BoM-AU] [JTWC-AU] [JTWC-SIO] [JTWC-SPAC] [JTWC-SH]
<<- Previous TC | JTWC 2011-2012 Season | Next TC ->>

click for intensity scale information  Lat/long Grid: Show Hide

 Date Labels: Show Hide

Joint Typhoon Warning Centre Cyclone Data

Name: 201202

02 Dec 2011 12:00 UTC to 11 Dec 2011 18:00 UTC

    date/time    lat    long     hPa   cat  kts
2011-12-02 12   12.5    69.3    1007         20          
2011-12-02 18   12.3    69.2    1007         20          
2011-12-03 00   12.1    69.2    1004         25          
2011-12-03 06   12.2    69.4    1004         25          
2011-12-03 12   12.4    69.5    1004         25          
2011-12-03 18   12.9    69.8    1000         30          
2011-12-04 00   13.7    70.3    1000         30          
2011-12-04 06   14.3    70.4    1003         25          
2011-12-04 12   14.6    70.5    1004         25          
2011-12-04 18   14.9    70.5    1004         25          
2011-12-05 00   15.3    70.4    1000         30          
2011-12-05 06   15.8    70.2    1000         30          
2011-12-05 12   16.3    70.0    1000         30          
2011-12-05 18   16.6    69.7    1000         30          
2011-12-06 00   16.9    69.5     996         35          
2011-12-06 06   16.9    69.1     996         35          
2011-12-06 12   16.9    68.6     996         35          
2011-12-06 18   16.5    68.3    1000         30          
2011-12-07 00   16.3    68.0    1000         30          
2011-12-07 06   16.2    67.6    1000         30          
2011-12-07 12   16.0    67.4    1000         30          
2011-12-07 18   16.2    67.1    1004         25          
2011-12-08 00   16.7    66.7    1004         25          
2011-12-08 06   16.6    66.2    1004         25          
2011-12-08 12   16.2    66.4    1004         25          
2011-12-08 15   16.3    66.6    1004         25          
2011-12-08 18   16.5    66.6    1004         25          
2011-12-09 00   16.5    66.1    1004         25          
2011-12-09 06   16.5    65.6    1004         25          
2011-12-09 12   16.5    65.0    1004         25          
2011-12-09 18   16.5    64.4    1004         25          
2011-12-10 00   16.5    63.5    1004         25          
2011-12-10 06   16.4    62.8    1004         25          
2011-12-10 12   16.4    62.2    1007         20          
2011-12-10 18   16.2    61.6    1007         20          
2011-12-11 00   16.1    61.2    1007         20          
2011-12-11 06   16.0    60.8    1007         20          
2011-12-11 12   16.3    59.8    1007         20          
2011-12-11 18   16.2    58.6    1007         20          
Winds are 1-min average.

Tropical cyclone tracks developed by Michael Bath using data from the Joint Typhoon Warning Centre Best Tracks and Google Maps.


[Australian Severe Weather index] [Copyright Notice] [Email Contacts] [Search This Site] [Privacy Policy]
Document: tropical_cyclone_201202.htm Updated: 28 June 2017